sensor_id;sensor_type;location;lat;lon;timestamp;temperature;humidity
10597;DHT22;5346;48.766;8.674;2023-07-24T07:15:35;20.50;1.00
10597;DHT22;5346;48.766;8.674;2023-07-24T07:18:10;20.70;1.00
10597;DHT22;5346;48.766;8.674;2023-07-24T07:20:37;20.60;1.00
10597;DHT22;5346;48.766;8.674;2023-07-24T07:23:11;20.50;1.00
10597;DHT22;5346;48.766;8.674;2023-07-24T07:25:38;20.30;1.00
10597;DHT22;5346;48.766;8.674;2023-07-24T07:28:13;20.10;28.60
10597;DHT22;5346;48.766;8.674;2023-07-24T07:30:41;19.80;99.90
10597;DHT22;5346;48.766;8.674;2023-07-24T07:33:15;19.60;99.90
10597;DHT22;5346;48.766;8.674;2023-07-24T07:35:42;19.40;99.90
10597;DHT22;5346;48.766;8.674;2023-07-24T07:38:16;19.30;99.90
10597;DHT22;5346;48.766;8.674;2023-07-24T07:40:43;19.20;99.90
10597;DHT22;5346;48.766;8.674;2023-07-24T07:43:17;19.10;99.90
10597;DHT22;5346;48.766;8.674;2023-07-24T07:45:44;19.00;99.90
10597;DHT22;5346;48.766;8.674;2023-07-24T07:48:20;18.90;1.00
10597;DHT22;5346;48.766;8.674;2023-07-24T07:50:54;18.70;1.00
10597;DHT22;5346;48.766;8.674;2023-07-24T07:53:21;18.40;1.00
10597;DHT22;5346;48.766;8.674;2023-07-24T07:55:58;18.10;99.90
10597;DHT22;5346;48.766;8.674;2023-07-24T07:58:29;17.70;1.00
10597;DHT22;5346;48.766;8.674;2023-07-24T08:01:04;17.30;99.90
10597;DHT22;5346;48.766;8.674;2023-07-24T08:03:39;17.00;98.70
10597;DHT22;5346;48.766;8.674;2023-07-24T08:06:13;16.70;1.00
10597;DHT22;5346;48.766;8.674;2023-07-24T08:08:40;16.60;1.00
10597;DHT22;5346;48.766;8.674;2023-07-24T08:11:14;16.40;99.90
10597;DHT22;5346;48.766;8.674;2023-07-24T08:13:48;16.30;1.00
10597;DHT22;5346;48.766;8.674;2023-07-24T08:16:22;16.30;1.00
10597;DHT22;5346;48.766;8.674;2023-07-24T08:18:57;16.40;99.90
10597;DHT22;5346;48.766;8.674;2023-07-24T08:21:31;16.50;99.90
10597;DHT22;5346;48.766;8.674;2023-07-24T08:24:06;16.60;99.90
10597;DHT22;5346;48.766;8.674;2023-07-24T08:26:40;16.60;99.90
10597;DHT22;5346;48.766;8.674;2023-07-24T08:29:07;16.70;99.90
10597;DHT22;5346;48.766;8.674;2023-07-24T08:31:41;16.70;41.00
10597;DHT22;5346;48.766;8.674;2023-07-24T08:34:12;16.80;99.90
10597;DHT22;5346;48.766;8.674;2023-07-24T08:36:46;17.00;87.40
10597;DHT22;5346;48.766;8.674;2023-07-24T08:39:13;17.00;1.00
10597;DHT22;5346;48.766;8.674;2023-07-24T08:41:48;17.10;1.00
10597;DHT22;5346;48.766;8.674;2023-07-24T08:44:23;17.10;1.00
10597;DHT22;5346;48.766;8.674;2023-07-24T08:46:58;17.10;99.90
10597;DHT22;5346;48.766;8.674;2023-07-24T08:49:37;17.20;99.90
10597;DHT22;5346;48.766;8.674;2023-07-24T08:52:16;17.40;99.90
10597;DHT22;5346;48.766;8.674;2023-07-24T08:55:02;17.60;99.90
10597;DHT22;5346;48.766;8.674;2023-07-24T08:57:37;17.90;1.00
10597;DHT22;5346;48.766;8.674;2023-07-24T09:00:05;18.10;99.90
10597;DHT22;5346;48.766;8.674;2023-07-24T09:02:33;18.40;6.00
10597;DHT22;5346;48.766;8.674;2023-07-24T09:05:08;18.80;1.00
10597;DHT22;5346;48.766;8.674;2023-07-24T09:07:37;19.20;99.90
10597;DHT22;5346;48.766;8.674;2023-07-24T09:10:11;19.40;99.90
10597;DHT22;5346;48.766;8.674;2023-07-24T09:12:53;19.60;31.40
10597;DHT22;5346;48.766;8.674;2023-07-24T09:15:27;19.60;1.00
10597;DHT22;5346;48.766;8.674;2023-07-24T09:17:54;19.60;1.00
10597;DHT22;5346;48.766;8.674;2023-07-24T09:20:22;19.70;1.00
10597;DHT22;5346;48.766;8.674;2023-07-24T09:22:58;19.80;99.90
10597;DHT22;5346;48.766;8.674;2023-07-24T09:25:36;19.90;99.90
10597;DHT22;5346;48.766;8.674;2023-07-24T09:28:16;20.00;1.40
10597;DHT22;5346;48.766;8.674;2023-07-24T09:30:55;20.00;99.90
10597;DHT22;5346;48.766;8.674;2023-07-24T09:33:38;20.10;99.90
10597;DHT22;5346;48.766;8.674;2023-07-24T09:36:17;20.00;6.90
10597;DHT22;5346;48.766;8.674;2023-07-24T09:39:00;20.10;29.40
10597;DHT22;5346;48.766;8.674;2023-07-24T09:41:42;20.00;5.70
10597;DHT22;5346;48.766;8.674;2023-07-24T09:44:11;19.80;55.10
10597;DHT22;5346;48.766;8.674;2023-07-24T09:46:46;19.70;76.30
10597;DHT22;5346;48.766;8.674;2023-07-24T09:49:28;19.60;99.90
10597;DHT22;5346;48.766;8.674;2023-07-24T09:52:07;19.60;99.90
10597;DHT22;5346;48.766;8.674;2023-07-24T09:54:51;19.50;99.90
10597;DHT22;5346;48.766;8.674;2023-07-24T09:57:32;19.40;99.90
10597;DHT22;5346;48.766;8.674;2023-07-24T10:00:01;19.10;99.90
10597;DHT22;5346;48.766;8.674;2023-07-24T10:02:36;18.80;99.90
10597;DHT22;5346;48.766;8.674;2023-07-24T10:05:11;18.60;1.00
10597;DHT22;5346;48.766;8.674;2023-07-24T10:07:47;18.30;1.00
10597;DHT22;5346;48.766;8.674;2023-07-24T10:10:15;18.10;99.90
10597;DHT22;5346;48.766;8.674;2023-07-24T10:12:49;17.90;99.90
10597;DHT22;5346;48.766;8.674;2023-07-24T10:15:25;17.70;99.90
10597;DHT22;5346;48.766;8.674;2023-07-24T10:18:04;17.40;99.90
10597;DHT22;5346;48.766;8.674;2023-07-24T10:20:41;17.20;1.00
10597;DHT22;5346;48.766;8.674;2023-07-24T10:23:17;17.00;1.00
10597;DHT22;5346;48.766;8.674;2023-07-24T14:22:37;23.30;99.90
10597;DHT22;5346;48.766;8.674;2023-07-24T14:25:04;23.40;99.90
10597;DHT22;5346;48.766;8.674;2023-07-24T14:27:40;23.60;1.00
10597;DHT22;5346;48.766;8.674;2023-07-24T14:30:09;23.20;1.00
10597;DHT22;5346;48.766;8.674;2023-07-24T14:32:44;22.80;1.00
10597;DHT22;5346;48.766;8.674;2023-07-24T14:35:14;22.70;1.00
10597;DHT22;5346;48.766;8.674;2023-07-24T14:37:49;22.30;1.00
10597;DHT22;5346;48.766;8.674;2023-07-24T14:40:22;22.30;1.00
10597;DHT22;5346;48.766;8.674;2023-07-24T14:42:57;22.50;1.00
10597;DHT22;5346;48.766;8.674;2023-07-24T14:45:24;22.80;1.00
10597;DHT22;5346;48.766;8.674;2023-07-24T14:48:01;22.80;1.00
10597;DHT22;5346;48.766;8.674;2023-07-24T14:50:28;22.70;1.00
10597;DHT22;5346;48.766;8.674;2023-07-24T14:53:03;22.70;1.00
10597;DHT22;5346;48.766;8.674;2023-07-24T14:55:37;22.70;1.00
10597;DHT22;5346;48.766;8.674;2023-07-24T14:58:10;22.80;1.00
10597;DHT22;5346;48.766;8.674;2023-07-24T15:00:45;23.10;1.00
10597;DHT22;5346;48.766;8.674;2023-07-24T15:03:13;23.60;1.00
10597;DHT22;5346;48.766;8.674;2023-07-24T15:05:46;23.90;1.00
10597;DHT22;5346;48.766;8.674;2023-07-24T15:08:14;24.30;1.00
10597;DHT22;5346;48.766;8.674;2023-07-24T15:10:48;24.70;1.00
10597;DHT22;5346;48.766;8.674;2023-07-24T15:13:29;25.00;1.00
10597;DHT22;5346;48.766;8.674;2023-07-24T15:16:03;24.80;99.90
10597;DHT22;5346;48.766;8.674;2023-07-24T15:18:38;23.90;1.00
10597;DHT22;5346;48.766;8.674;2023-07-24T15:21:11;22.80;1.00
10597;DHT22;5346;48.766;8.674;2023-07-24T15:23:47;21.90;1.00
10597;DHT22;5346;48.766;8.674;2023-07-24T15:26:25;21.20;1.00
10597;DHT22;5346;48.766;8.674;2023-07-24T15:28:58;20.60;10.10
10597;DHT22;5346;48.766;8.674;2023-07-24T15:31:32;20.20;70.70
10597;DHT22;5346;48.766;8.674;2023-07-24T15:34:10;19.90;99.90
10597;DHT22;5346;48.766;8.674;2023-07-24T15:36:44;19.70;99.90
10597;DHT22;5346;48.766;8.674;2023-07-24T15:39:20;19.50;99.90
10597;DHT22;5346;48.766;8.674;2023-07-24T15:41:55;19.30;99.90
10597;DHT22;5346;48.766;8.674;2023-07-24T15:44:30;19.10;99.90
10597;DHT22;5346;48.766;8.674;2023-07-24T15:47:04;18.90;1.00
10597;DHT22;5346;48.766;8.674;2023-07-24T15:49:38;18.40;13.60
10597;DHT22;5346;48.766;8.674;2023-07-24T15:52:08;18.00;99.90
10597;DHT22;5346;48.766;8.674;2023-07-24T15:54:46;17.80;99.90
10597;DHT22;5346;48.766;8.674;2023-07-24T15:57:13;17.50;1.00
10597;DHT22;5346;48.766;8.674;2023-07-24T19:34:38;13.40;1.00
10597;DHT22;5346;48.766;8.674;2023-07-24T19:37:12;13.40;52.90
10597;DHT22;5346;48.766;8.674;2023-07-24T19:39:47;13.30;99.90
10597;DHT22;5346;48.766;8.674;2023-07-24T19:42:21;13.20;99.90
10597;DHT22;5346;48.766;8.674;2023-07-24T19:44:58;13.10;99.90
10597;DHT22;5346;48.766;8.674;2023-07-24T19:47:26;13.00;99.90
10597;DHT22;5346;48.766;8.674;2023-07-24T19:50:00;13.00;99.90
10597;DHT22;5346;48.766;8.674;2023-07-24T19:52:37;12.90;99.90
10597;DHT22;5346;48.766;8.674;2023-07-24T19:55:11;12.90;99.90
10597;DHT22;5346;48.766;8.674;2023-07-24T19:57:45;12.80;99.90
10597;DHT22;5346;48.766;8.674;2023-07-24T20:00:20;12.70;99.90
10597;DHT22;5346;48.766;8.674;2023-07-24T20:02:57;12.70;99.90
10597;DHT22;5346;48.766;8.674;2023-07-24T20:05:25;12.60;99.90
10597;DHT22;5346;48.766;8.674;2023-07-24T20:08:07;12.50;99.90
10597;DHT22;5346;48.766;8.674;2023-07-24T20:10:42;12.40;1.00
10597;DHT22;5346;48.766;8.674;2023-07-24T20:13:23;12.40;1.00
10597;DHT22;5346;48.766;8.674;2023-07-24T20:15:50;12.40;1.00
10597;DHT22;5346;48.766;8.674;2023-07-24T20:18:24;12.40;1.00
10597;DHT22;5346;48.766;8.674;2023-07-24T20:20:58;12.40;1.00
10597;DHT22;5346;48.766;8.674;2023-07-24T20:23:32;12.40;1.00
10597;DHT22;5346;48.766;8.674;2023-07-24T20:26:00;12.30;1.00
10597;DHT22;5346;48.766;8.674;2023-07-24T20:28:34;12.30;1.00
10597;DHT22;5346;48.766;8.674;2023-07-24T20:31:05;12.20;1.00
10597;DHT22;5346;48.766;8.674;2023-07-24T20:33:39;12.20;1.00
10597;DHT22;5346;48.766;8.674;2023-07-24T20:36:07;12.10;1.00
10597;DHT22;5346;48.766;8.674;2023-07-24T20:38:43;12.10;1.00
10597;DHT22;5346;48.766;8.674;2023-07-24T20:41:10;12.10;1.00
10597;DHT22;5346;48.766;8.674;2023-07-24T20:43:47;12.00;1.00
10597;DHT22;5346;48.766;8.674;2023-07-24T20:46:21;12.00;1.00
10597;DHT22;5346;48.766;8.674;2023-07-24T20:48:55;11.90;1.00
10597;DHT22;5346;48.766;8.674;2023-07-24T20:53:58;11.80;1.00
10597;DHT22;5346;48.766;8.674;2023-07-24T20:56:32;11.80;1.00
10597;DHT22;5346;48.766;8.674;2023-07-24T20:59:07;11.80;1.00
10597;DHT22;5346;48.766;8.674;2023-07-24T21:01:41;11.80;1.00
10597;DHT22;5346;48.766;8.674;2023-07-24T21:04:09;11.80;1.00
10597;DHT22;5346;48.766;8.674;2023-07-24T21:06:43;11.80;1.00
10597;DHT22;5346;48.766;8.674;2023-07-24T21:09:11;11.80;1.00
10597;DHT22;5346;48.766;8.674;2023-07-24T21:11:45;11.80;35.10
10597;DHT22;5346;48.766;8.674;2023-07-24T21:14:25;11.90;99.90
10597;DHT22;5346;48.766;8.674;2023-07-24T21:17:05;11.90;99.90
10597;DHT22;5346;48.766;8.674;2023-07-24T21:19:39;11.90;99.90
10597;DHT22;5346;48.766;8.674;2023-07-24T21:22:13;11.80;99.90
10597;DHT22;5346;48.766;8.674;2023-07-24T21:24:49;11.70;99.90
10597;DHT22;5346;48.766;8.674;2023-07-24T21:27:16;11.70;99.90
10597;DHT22;5346;48.766;8.674;2023-07-24T21:29:55;11.70;99.90
10597;DHT22;5346;48.766;8.674;2023-07-24T21:32:23;11.70;99.90
10597;DHT22;5346;48.766;8.674;2023-07-24T21:34:57;11.80;99.90
10597;DHT22;5346;48.766;8.674;2023-07-24T21:37:24;11.80;99.90
10597;DHT22;5346;48.766;8.674;2023-07-24T21:39:58;11.70;99.90
10597;DHT22;5346;48.766;8.674;2023-07-24T21:42:25;11.70;99.90
10597;DHT22;5346;48.766;8.674;2023-07-24T21:44:59;11.80;99.90
10597;DHT22;5346;48.766;8.674;2023-07-24T21:47:27;11.80;99.90
10597;DHT22;5346;48.766;8.674;2023-07-24T21:50:01;11.70;99.90
10597;DHT22;5346;48.766;8.674;2023-07-24T21:52:35;11.60;99.90
10597;DHT22;5346;48.766;8.674;2023-07-24T21:55:11;11.70;99.90
10597;DHT22;5346;48.766;8.674;2023-07-24T21:57:47;11.70;99.90
10597;DHT22;5346;48.766;8.674;2023-07-24T22:00:21;11.70;99.90
10597;DHT22;5346;48.766;8.674;2023-07-24T22:02:58;11.80;99.90
10597;DHT22;5346;48.766;8.674;2023-07-24T22:05:46;11.90;99.90
10597;DHT22;5346;48.766;8.674;2023-07-24T22:08:15;11.90;99.90
10597;DHT22;5346;48.766;8.674;2023-07-24T22:10:51;11.80;1.00
10597;DHT22;5346;48.766;8.674;2023-07-24T22:13:19;11.80;1.00
10597;DHT22;5346;48.766;8.674;2023-07-24T22:16:00;11.80;1.00
10597;DHT22;5346;48.766;8.674;2023-07-24T22:18:27;11.80;1.00
10597;DHT22;5346;48.766;8.674;2023-07-24T22:21:01;11.80;1.00
10597;DHT22;5346;48.766;8.674;2023-07-24T22:23:35;11.80;1.00
10597;DHT22;5346;48.766;8.674;2023-07-24T22:26:09;11.80;1.00
10597;DHT22;5346;48.766;8.674;2023-07-24T22:28:44;11.70;1.00
10597;DHT22;5346;48.766;8.674;2023-07-24T22:31:19;11.60;1.00
10597;DHT22;5346;48.766;8.674;2023-07-24T22:33:46;11.50;1.00
10597;DHT22;5346;48.766;8.674;2023-07-24T22:36:29;11.50;1.00
10597;DHT22;5346;48.766;8.674;2023-07-24T22:38:57;11.40;1.00
10597;DHT22;5346;48.766;8.674;2023-07-24T22:41:35;11.30;1.00
10597;DHT22;5346;48.766;8.674;2023-07-24T22:44:09;11.40;1.00
10597;DHT22;5346;48.766;8.674;2023-07-24T22:46:44;11.40;1.00
10597;DHT22;5346;48.766;8.674;2023-07-24T22:49:19;11.50;1.00
10597;DHT22;5346;48.766;8.674;2023-07-24T22:51:46;11.60;1.00
10597;DHT22;5346;48.766;8.674;2023-07-24T22:54:20;11.80;1.00
10597;DHT22;5346;48.766;8.674;2023-07-24T22:56:49;11.80;1.00
10597;DHT22;5346;48.766;8.674;2023-07-24T22:59:19;11.80;1.00
10597;DHT22;5346;48.766;8.674;2023-07-24T23:01:56;11.90;1.00
10597;DHT22;5346;48.766;8.674;2023-07-24T23:04:32;12.00;1.00
10597;DHT22;5346;48.766;8.674;2023-07-24T23:07:07;12.10;1.00
10597;DHT22;5346;48.766;8.674;2023-07-24T23:09:36;12.20;99.90
10597;DHT22;5346;48.766;8.674;2023-07-24T23:12:17;12.30;99.90
10597;DHT22;5346;48.766;8.674;2023-07-24T23:14:59;12.40;99.90
10597;DHT22;5346;48.766;8.674;2023-07-24T23:17:33;12.50;99.90
10597;DHT22;5346;48.766;8.674;2023-07-24T23:20:07;12.60;99.90
10597;DHT22;5346;48.766;8.674;2023-07-24T23:22:42;12.50;99.90
10597;DHT22;5346;48.766;8.674;2023-07-24T23:25:09;12.50;1.00
10597;DHT22;5346;48.766;8.674;2023-07-24T23:27:43;12.50;1.00
10597;DHT22;5346;48.766;8.674;2023-07-24T23:30:17;12.40;1.00
10597;DHT22;5346;48.766;8.674;2023-07-24T23:32:51;12.40;1.00
10597;DHT22;5346;48.766;8.674;2023-07-24T23:35:25;12.40;1.00
10597;DHT22;5346;48.766;8.674;2023-07-24T23:37:59;12.40;1.00
10597;DHT22;5346;48.766;8.674;2023-07-24T23:40:26;12.50;1.00
10597;DHT22;5346;48.766;8.674;2023-07-24T23:42:55;12.60;1.00
10597;DHT22;5346;48.766;8.674;2023-07-24T23:45:33;12.70;1.00
10597;DHT22;5346;48.766;8.674;2023-07-24T23:48:02;12.70;1.00
10597;DHT22;5346;48.766;8.674;2023-07-24T23:50:37;12.70;1.00
10597;DHT22;5346;48.766;8.674;2023-07-24T23:53:04;12.70;1.00
10597;DHT22;5346;48.766;8.674;2023-07-24T23:55:39;12.70;1.00
10597;DHT22;5346;48.766;8.674;2023-07-24T23:58:06;12.70;1.00
